sensor_id;sensor_type;location;lat;lon;timestamp;pressure;altitude;pressure_sealevel;temperature;humidity
72063;BME280;59929;43.546;-5.702;2022-09-06T09:13:54;101604.13;;;23.44;54.37
72063;BME280;59929;43.546;-5.702;2022-09-06T09:16:23;101598.69;;;23.53;53.18
72063;BME280;59929;43.546;-5.702;2022-09-06T09:18:52;101600.66;;;23.66;53.48
72063;BME280;59929;43.546;-5.702;2022-09-06T09:21:21;101603.81;;;23.73;52.40
72063;BME280;59929;43.546;-5.702;2022-09-06T09:23:52;101601.66;;;23.83;51.90
72063;BME280;59929;43.546;-5.702;2022-09-06T09:26:19;101601.41;;;23.93;50.82
72063;BME280;59929;43.546;-5.702;2022-09-06T09:29:02;101607.28;;;24.05;51.84
72063;BME280;59929;43.546;-5.702;2022-09-06T09:31:33;101596.78;;;24.16;50.18
72063;BME280;59929;43.546;-5.702;2022-09-06T09:33:59;101612.00;;;24.18;50.13
72063;BME280;59929;43.546;-5.702;2022-09-06T09:36:29;101597.38;;;24.27;50.02
72063;BME280;59929;43.546;-5.702;2022-09-06T09:38:55;101597.94;;;24.37;50.32
72063;BME280;59929;43.546;-5.702;2022-09-06T09:41:32;101583.97;;;24.29;49.84
72063;BME280;59929;43.546;-5.702;2022-09-06T09:44:02;101607.16;;;24.46;49.61
72063;BME280;59929;43.546;-5.702;2022-09-06T09:46:32;101608.72;;;24.52;50.14
72063;BME280;59929;43.546;-5.702;2022-09-06T09:49:05;101606.38;;;24.68;49.19
72063;BME280;59929;43.546;-5.702;2022-09-06T09:51:34;101608.91;;;24.78;47.86
72063;BME280;59929;43.546;-5.702;2022-09-06T09:54:03;101606.19;;;24.86;48.35
72063;BME280;59929;43.546;-5.702;2022-09-06T09:56:40;101600.81;;;24.90;47.81
72063;BME280;59929;43.546;-5.702;2022-09-06T09:59:20;101607.19;;;24.90;46.63
72063;BME280;59929;43.546;-5.702;2022-09-06T10:01:46;101600.38;;;24.96;47.59
72063;BME280;59929;43.546;-5.702;2022-09-06T10:04:18;101600.09;;;25.07;47.34
72063;BME280;59929;43.546;-5.702;2022-09-06T10:06:44;101597.69;;;25.14;47.55
72063;BME280;59929;43.546;-5.702;2022-09-06T10:09:14;101595.75;;;25.23;48.42
72063;BME280;59929;43.546;-5.702;2022-09-06T10:11:58;101591.69;;;25.29;47.92
72063;BME280;59929;43.546;-5.702;2022-09-06T10:14:39;101586.28;;;25.24;48.04
72063;BME280;59929;43.546;-5.702;2022-09-06T10:17:05;101583.81;;;25.31;48.30
72063;BME280;59929;43.546;-5.702;2022-09-06T10:19:38;101595.41;;;25.46;47.88
72063;BME280;59929;43.546;-5.702;2022-09-06T10:22:26;101589.56;;;25.65;47.01
72063;BME280;59929;43.546;-5.702;2022-09-06T10:25:13;101584.00;;;25.65;47.09
72063;BME280;59929;43.546;-5.702;2022-09-06T10:27:57;101586.28;;;25.63;46.62
72063;BME280;59929;43.546;-5.702;2022-09-06T10:30:28;101577.09;;;25.62;48.08
72063;BME280;59929;43.546;-5.702;2022-09-06T10:33:08;101580.34;;;25.56;49.31
72063;BME280;59929;43.546;-5.702;2022-09-06T10:35:40;101589.41;;;25.61;49.14
72063;BME280;59929;43.546;-5.702;2022-09-06T10:38:30;101578.22;;;25.53;48.37
72063;BME280;59929;43.546;-5.702;2022-09-06T10:41:24;101594.16;;;25.61;48.12
72063;BME280;59929;43.546;-5.702;2022-09-06T10:49:40;101596.75;;;25.57;48.25
72063;BME280;59929;43.546;-5.702;2022-09-06T10:52:12;101598.72;;;25.57;47.80
72063;BME280;59929;43.546;-5.702;2022-09-06T10:54:40;101592.84;;;25.67;47.84
72063;BME280;59929;43.546;-5.702;2022-09-06T10:57:12;101588.16;;;25.93;46.03
72063;BME280;59929;43.546;-5.702;2022-09-06T10:59:48;101594.44;;;26.16;45.97
72063;BME280;59929;43.546;-5.702;2022-09-06T11:02:37;101584.75;;;26.13;45.91
72063;BME280;59929;43.546;-5.702;2022-09-06T11:05:08;101590.97;;;26.02;46.06
72063;BME280;59929;43.546;-5.702;2022-09-06T11:07:43;101600.84;;;26.08;44.79
72063;BME280;59929;43.546;-5.702;2022-09-06T11:10:30;101601.19;;;26.40;44.11
72063;BME280;59929;43.546;-5.702;2022-09-06T11:13:02;101612.97;;;26.63;44.03
72063;BME280;59929;43.546;-5.702;2022-09-06T11:15:42;101612.50;;;26.87;44.41
72063;BME280;59929;43.546;-5.702;2022-09-06T11:24:13;101586.53;;;27.50;41.44
72063;BME280;59929;43.546;-5.702;2022-09-06T11:26:43;101582.59;;;27.51;42.06
72063;BME280;59929;43.546;-5.702;2022-09-06T11:29:17;101588.34;;;27.75;42.24
72063;BME280;59929;43.546;-5.702;2022-09-06T11:31:50;101586.47;;;27.96;42.41
72063;BME280;59929;43.546;-5.702;2022-09-06T11:34:26;101573.38;;;28.08;41.62
72063;BME280;59929;43.546;-5.702;2022-09-06T11:36:57;101571.69;;;28.49;40.86
72063;BME280;59929;43.546;-5.702;2022-09-06T11:39:32;101575.28;;;29.03;38.80
72063;BME280;59929;43.546;-5.702;2022-09-06T11:41:58;101578.75;;;29.56;36.96
72063;BME280;59929;43.546;-5.702;2022-09-06T11:47:40;101580.38;;;29.57;36.05
72063;BME280;59929;43.546;-5.702;2022-09-06T11:50:25;101582.84;;;29.59;36.11
72063;BME280;59929;43.546;-5.702;2022-09-06T11:53:15;101584.25;;;29.89;35.39
72063;BME280;59929;43.546;-5.702;2022-09-06T11:55:45;101584.28;;;30.29;35.17
72063;BME280;59929;43.546;-5.702;2022-09-06T11:58:24;101582.91;;;30.35;35.05
72063;BME280;59929;43.546;-5.702;2022-09-06T12:04:06;101581.31;;;29.61;36.34
72063;BME280;59929;43.546;-5.702;2022-09-06T12:06:37;101584.53;;;29.03;37.63
72063;BME280;59929;43.546;-5.702;2022-09-06T12:09:36;101588.59;;;28.73;39.06
72063;BME280;59929;43.546;-5.702;2022-09-06T12:12:01;101591.16;;;28.45;40.04
72063;BME280;59929;43.546;-5.702;2022-09-06T12:14:32;101590.94;;;28.50;39.64
72063;BME280;59929;43.546;-5.702;2022-09-06T12:17:18;101595.28;;;28.68;39.08
72063;BME280;59929;43.546;-5.702;2022-09-06T12:19:53;101584.09;;;28.27;39.43
72063;BME280;59929;43.546;-5.702;2022-09-06T12:22:49;101590.00;;;28.26;39.52
72063;BME280;59929;43.546;-5.702;2022-09-06T12:25:46;101584.97;;;28.40;39.98
72063;BME280;59929;43.546;-5.702;2022-09-06T12:28:08;101586.72;;;28.65;39.50
72063;BME280;59929;43.546;-5.702;2022-09-06T12:30:40;101587.19;;;29.00;38.55
72063;BME280;59929;43.546;-5.702;2022-09-06T12:36:25;101587.00;;;30.13;37.19
72063;BME280;59929;43.546;-5.702;2022-09-06T12:39:02;101567.69;;;30.24;36.81
72063;BME280;59929;43.546;-5.702;2022-09-06T12:41:31;101582.44;;;30.21;37.76
72063;BME280;59929;43.546;-5.702;2022-09-06T12:44:03;101578.63;;;30.53;36.95
72063;BME280;59929;43.546;-5.702;2022-09-06T12:46:31;101576.94;;;30.64;36.13
72063;BME280;59929;43.546;-5.702;2022-09-06T12:49:15;101579.09;;;30.98;36.03
72063;BME280;59929;43.546;-5.702;2022-09-06T12:51:42;101575.44;;;31.57;34.20
72063;BME280;59929;43.546;-5.702;2022-09-06T12:54:25;101569.94;;;31.95;32.45
72063;BME280;59929;43.546;-5.702;2022-09-06T12:56:52;101565.69;;;32.39;31.91
72063;BME280;59929;43.546;-5.702;2022-09-06T12:59:21;101570.34;;;32.89;31.26
72063;BME280;59929;43.546;-5.702;2022-09-06T13:01:59;101563.28;;;32.99;32.01
72063;BME280;59929;43.546;-5.702;2022-09-06T13:04:38;101556.94;;;32.63;34.47
72063;BME280;59929;43.546;-5.702;2022-09-06T13:07:10;101565.41;;;32.25;35.64
72063;BME280;59929;43.546;-5.702;2022-09-06T13:09:39;101568.91;;;32.03;35.80
72063;BME280;59929;43.546;-5.702;2022-09-06T13:14:55;101571.97;;;32.33;35.37
72063;BME280;59929;43.546;-5.702;2022-09-06T13:17:25;101569.81;;;32.83;34.90
72063;BME280;59929;43.546;-5.702;2022-09-06T13:19:51;101570.94;;;32.79;33.50
72063;BME280;59929;43.546;-5.702;2022-09-06T13:22:36;101568.94;;;32.79;32.73
72063;BME280;59929;43.546;-5.702;2022-09-06T13:25:03;101565.06;;;32.46;32.47
72063;BME280;59929;43.546;-5.702;2022-09-06T13:27:33;101568.41;;;31.82;34.13
72063;BME280;59929;43.546;-5.702;2022-09-06T13:30:06;101570.88;;;31.68;34.27
72063;BME280;59929;43.546;-5.702;2022-09-06T13:32:34;101578.09;;;32.00;33.69
72063;BME280;59929;43.546;-5.702;2022-09-06T13:35:00;101568.31;;;32.13;34.12
72063;BME280;59929;43.546;-5.702;2022-09-06T13:37:28;101563.44;;;32.10;33.67
72063;BME280;59929;43.546;-5.702;2022-09-06T13:39:56;101558.81;;;32.56;32.55
72063;BME280;59929;43.546;-5.702;2022-09-06T13:42:27;101554.44;;;33.23;31.82
72063;BME280;59929;43.546;-5.702;2022-09-06T13:44:53;101543.66;;;33.06;31.10
72063;BME280;59929;43.546;-5.702;2022-09-06T13:47:19;101561.94;;;32.93;32.21
72063;BME280;59929;43.546;-5.702;2022-09-06T13:49:45;101562.75;;;32.93;33.21
72063;BME280;59929;43.546;-5.702;2022-09-06T13:52:11;101558.91;;;32.82;33.60
72063;BME280;59929;43.546;-5.702;2022-09-06T13:54:38;101557.59;;;32.76;33.75
72063;BME280;59929;43.546;-5.702;2022-09-06T13:57:04;101559.63;;;32.37;34.20
72063;BME280;59929;43.546;-5.702;2022-09-06T13:59:30;101561.50;;;31.79;34.75
72063;BME280;59929;43.546;-5.702;2022-09-06T14:02:01;101562.19;;;31.26;35.81
72063;BME280;59929;43.546;-5.702;2022-09-06T14:04:29;101560.94;;;30.80;36.11
72063;BME280;59929;43.546;-5.702;2022-09-06T14:06:56;101560.47;;;30.50;37.63
72063;BME280;59929;43.546;-5.702;2022-09-06T14:09:21;101555.47;;;30.44;37.53
72063;BME280;59929;43.546;-5.702;2022-09-06T14:11:47;101556.16;;;30.53;36.91
72063;BME280;59929;43.546;-5.702;2022-09-06T14:14:13;101555.72;;;30.94;36.42
72063;BME280;59929;43.546;-5.702;2022-09-06T14:16:39;101564.72;;;31.15;36.43
72063;BME280;59929;43.546;-5.702;2022-09-06T14:19:04;101555.63;;;31.06;35.68
72063;BME280;59929;43.546;-5.702;2022-09-06T14:21:30;101560.94;;;30.80;35.96
72063;BME280;59929;43.546;-5.702;2022-09-06T14:23:57;101533.72;;;30.96;36.17
72063;BME280;59929;43.546;-5.702;2022-09-06T14:26:23;101541.25;;;31.39;35.33
72063;BME280;59929;43.546;-5.702;2022-09-06T14:28:49;101542.78;;;31.05;35.87
72063;BME280;59929;43.546;-5.702;2022-09-06T14:31:18;101550.16;;;30.82;36.79
72063;BME280;59929;43.546;-5.702;2022-09-06T14:33:44;101552.88;;;30.51;37.61
72063;BME280;59929;43.546;-5.702;2022-09-06T14:36:12;101544.25;;;30.04;38.44
72063;BME280;59929;43.546;-5.702;2022-09-06T14:38:40;101551.19;;;29.70;39.23
72063;BME280;59929;43.546;-5.702;2022-09-06T14:41:07;101560.66;;;29.30;40.48
72063;BME280;59929;43.546;-5.702;2022-09-06T14:43:34;101560.00;;;29.00;41.05
72063;BME280;59929;43.546;-5.702;2022-09-06T14:46:10;101564.88;;;28.79;41.75
72063;BME280;59929;43.546;-5.702;2022-09-06T14:48:37;101569.72;;;28.70;41.94
72063;BME280;59929;43.546;-5.702;2022-09-06T14:51:09;101569.81;;;28.41;42.56
72063;BME280;59929;43.546;-5.702;2022-09-06T14:53:43;101560.53;;;28.07;42.82
72063;BME280;59929;43.546;-5.702;2022-09-06T14:56:10;101560.53;;;28.07;43.33
72063;BME280;59929;43.546;-5.702;2022-09-06T14:58:36;101565.13;;;27.83;43.71
72063;BME280;59929;43.546;-5.702;2022-09-06T15:01:09;101555.44;;;27.80;43.14
72063;BME280;59929;43.546;-5.702;2022-09-06T15:03:38;101565.72;;;28.17;42.62
72063;BME280;59929;43.546;-5.702;2022-09-06T15:06:05;101559.94;;;28.23;42.82
72063;BME280;59929;43.546;-5.702;2022-09-06T15:08:31;101565.91;;;27.92;42.91
72063;BME280;59929;43.546;-5.702;2022-09-06T15:10:57;101555.13;;;27.82;43.51
72063;BME280;59929;43.546;-5.702;2022-09-06T15:13:24;101556.31;;;28.01;43.18
72063;BME280;59929;43.546;-5.702;2022-09-06T15:15:51;101558.97;;;28.39;43.17
72063;BME280;59929;43.546;-5.702;2022-09-06T15:18:16;101567.94;;;28.45;42.82
72063;BME280;59929;43.546;-5.702;2022-09-06T15:20:42;101555.03;;;28.52;42.67
72063;BME280;59929;43.546;-5.702;2022-09-06T15:23:09;101553.63;;;28.46;42.76
72063;BME280;59929;43.546;-5.702;2022-09-06T15:25:35;101555.34;;;28.59;42.36
72063;BME280;59929;43.546;-5.702;2022-09-06T15:28:01;101554.94;;;28.81;42.03
72063;BME280;59929;43.546;-5.702;2022-09-06T15:30:26;101558.38;;;28.99;41.77
72063;BME280;59929;43.546;-5.702;2022-09-06T15:32:52;101571.44;;;28.95;41.83
72063;BME280;59929;43.546;-5.702;2022-09-06T15:35:18;101553.81;;;28.94;41.15
72063;BME280;59929;43.546;-5.702;2022-09-06T15:37:43;101547.88;;;29.08;39.42
72063;BME280;59929;43.546;-5.702;2022-09-06T15:40:09;101551.75;;;28.71;40.03
72063;BME280;59929;43.546;-5.702;2022-09-06T15:42:37;101555.34;;;28.39;41.22
72063;BME280;59929;43.546;-5.702;2022-09-06T15:45:04;101558.00;;;28.35;41.34
72063;BME280;59929;43.546;-5.702;2022-09-06T15:47:30;101554.34;;;28.02;41.74
72063;BME280;59929;43.546;-5.702;2022-09-06T15:49:59;101557.47;;;28.00;41.48
72063;BME280;59929;43.546;-5.702;2022-09-06T15:52:26;101561.22;;;28.46;41.21
72063;BME280;59929;43.546;-5.702;2022-09-06T15:54:52;101562.59;;;28.60;40.63
72063;BME280;59929;43.546;-5.702;2022-09-06T15:57:33;101560.09;;;28.59;40.64
72063;BME280;59929;43.546;-5.702;2022-09-06T15:59:59;101553.75;;;29.15;39.83
72063;BME280;59929;43.546;-5.702;2022-09-06T16:02:24;101554.34;;;29.21;39.52
72063;BME280;59929;43.546;-5.702;2022-09-06T16:04:50;101557.59;;;29.23;39.46
72063;BME280;59929;43.546;-5.702;2022-09-06T16:07:16;101552.59;;;29.64;38.91
72063;BME280;59929;43.546;-5.702;2022-09-06T16:09:41;101554.19;;;30.02;37.30
72063;BME280;59929;43.546;-5.702;2022-09-06T16:12:07;101553.25;;;30.10;37.34
72063;BME280;59929;43.546;-5.702;2022-09-06T16:14:33;101553.13;;;34.48;30.11
72063;BME280;59929;43.546;-5.702;2022-09-06T16:16:59;101550.56;;;40.48;21.63
72063;BME280;59929;43.546;-5.702;2022-09-06T16:19:25;101548.91;;;35.01;27.35
72063;BME280;59929;43.546;-5.702;2022-09-06T16:21:51;101551.31;;;33.28;30.16
72063;BME280;59929;43.546;-5.702;2022-09-06T16:24:17;101551.16;;;32.18;32.56
72063;BME280;59929;43.546;-5.702;2022-09-06T16:26:44;101551.41;;;32.89;30.89
72063;BME280;59929;43.546;-5.702;2022-09-06T16:29:13;101549.53;;;32.36;32.62
72063;BME280;59929;43.546;-5.702;2022-09-06T16:31:39;101551.19;;;31.68;33.73
72063;BME280;59929;43.546;-5.702;2022-09-06T16:34:05;101547.53;;;31.83;33.38
72063;BME280;59929;43.546;-5.702;2022-09-06T16:36:32;101553.06;;;31.95;33.25
72063;BME280;59929;43.546;-5.702;2022-09-06T16:38:57;101554.94;;;31.56;33.12
72063;BME280;59929;43.546;-5.702;2022-09-06T16:41:26;101554.94;;;31.91;33.14
72063;BME280;59929;43.546;-5.702;2022-09-06T16:43:53;101544.25;;;31.81;33.26
72063;BME280;59929;43.546;-5.702;2022-09-06T16:46:23;101551.97;;;32.19;32.22
72063;BME280;59929;43.546;-5.702;2022-09-06T16:48:52;101551.47;;;32.51;31.73
72063;BME280;59929;43.546;-5.702;2022-09-06T16:51:19;101547.69;;;33.05;31.25
72063;BME280;59929;43.546;-5.702;2022-09-06T16:53:46;101549.13;;;33.93;29.80
72063;BME280;59929;43.546;-5.702;2022-09-06T16:56:15;101553.94;;;33.62;29.53
72063;BME280;59929;43.546;-5.702;2022-09-06T16:58:43;101555.97;;;33.17;30.67
72063;BME280;59929;43.546;-5.702;2022-09-06T17:01:09;101573.56;;;33.10;31.12
72063;BME280;59929;43.546;-5.702;2022-09-06T17:03:36;101565.16;;;32.91;30.73
72063;BME280;59929;43.546;-5.702;2022-09-06T17:06:02;101567.03;;;32.45;31.87
72063;BME280;59929;43.546;-5.702;2022-09-06T17:08:30;101572.44;;;32.96;31.00
72063;BME280;59929;43.546;-5.702;2022-09-06T17:11:00;101570.41;;;32.93;31.84
72063;BME280;59929;43.546;-5.702;2022-09-06T17:13:27;101586.09;;;32.94;32.71
72063;BME280;59929;43.546;-5.702;2022-09-06T17:15:53;101593.94;;;33.23;31.41
72063;BME280;59929;43.546;-5.702;2022-09-06T17:18:31;101584.03;;;34.67;28.82
72063;BME280;59929;43.546;-5.702;2022-09-06T17:20:59;101589.31;;;34.09;29.73
72063;BME280;59929;43.546;-5.702;2022-09-06T17:23:26;101594.13;;;32.92;31.47
72063;BME280;59929;43.546;-5.702;2022-09-06T17:25:52;101593.69;;;33.09;31.27
72063;BME280;59929;43.546;-5.702;2022-09-06T17:28:18;101592.09;;;32.50;32.19
72063;BME280;59929;43.546;-5.702;2022-09-06T17:30:44;101597.25;;;31.94;33.47
72063;BME280;59929;43.546;-5.702;2022-09-06T17:33:10;101599.53;;;31.58;34.04
72063;BME280;59929;43.546;-5.702;2022-09-06T17:35:38;101594.16;;;32.53;32.39
72063;BME280;59929;43.546;-5.702;2022-09-06T17:38:04;101606.53;;;31.64;34.19
72063;BME280;59929;43.546;-5.702;2022-09-06T17:40:30;101613.56;;;31.26;35.88
72063;BME280;59929;43.546;-5.702;2022-09-06T17:42:56;101610.88;;;30.59;37.15
72063;BME280;59929;43.546;-5.702;2022-09-06T17:45:22;101602.81;;;29.57;39.62
72063;BME280;59929;43.546;-5.702;2022-09-06T17:47:48;101617.69;;;29.13;40.57
72063;BME280;59929;43.546;-5.702;2022-09-06T17:50:14;101627.09;;;28.64;42.59
72063;BME280;59929;43.546;-5.702;2022-09-06T17:52:41;101625.41;;;28.22;43.53
72063;BME280;59929;43.546;-5.702;2022-09-06T17:55:07;101626.28;;;28.13;43.34
72063;BME280;59929;43.546;-5.702;2022-09-06T17:57:33;101615.56;;;27.86;42.36
72063;BME280;59929;43.546;-5.702;2022-09-06T17:59:59;101623.44;;;27.64;43.20
72063;BME280;59929;43.546;-5.702;2022-09-06T18:02:25;101622.72;;;27.29;44.49
72063;BME280;59929;43.546;-5.702;2022-09-06T18:04:50;101625.16;;;26.76;47.07
72063;BME280;59929;43.546;-5.702;2022-09-06T18:07:16;101630.22;;;26.56;46.78
72063;BME280;59929;43.546;-5.702;2022-09-06T18:09:42;101622.03;;;26.51;45.76
72063;BME280;59929;43.546;-5.702;2022-09-06T18:12:07;101623.44;;;26.06;46.27
72063;BME280;59929;43.546;-5.702;2022-09-06T18:14:33;101629.16;;;25.53;47.66
72063;BME280;59929;43.546;-5.702;2022-09-06T18:16:59;101621.94;;;25.44;48.20
72063;BME280;59929;43.546;-5.702;2022-09-06T18:19:25;101625.16;;;25.76;47.64
72063;BME280;59929;43.546;-5.702;2022-09-06T18:21:51;101629.56;;;25.38;48.73
72063;BME280;59929;43.546;-5.702;2022-09-06T18:24:18;101632.81;;;25.32;48.95
72063;BME280;59929;43.546;-5.702;2022-09-06T18:26:44;101634.53;;;25.41;48.24
72063;BME280;59929;43.546;-5.702;2022-09-06T18:29:11;101626.13;;;25.63;48.37
72063;BME280;59929;43.546;-5.702;2022-09-06T18:31:39;101624.69;;;25.83;48.17
72063;BME280;59929;43.546;-5.702;2022-09-06T18:34:06;101629.47;;;25.91;47.40
72063;BME280;59929;43.546;-5.702;2022-09-06T18:36:33;101633.31;;;25.64;48.37
72063;BME280;59929;43.546;-5.702;2022-09-06T18:39:00;101635.34;;;25.42;48.97
72063;BME280;59929;43.546;-5.702;2022-09-06T18:41:28;101641.13;;;25.54;48.63
72063;BME280;59929;43.546;-5.702;2022-09-06T18:44:11;101640.63;;;25.52;48.84
72063;BME280;59929;43.546;-5.702;2022-09-06T18:46:37;101641.16;;;25.32;49.42
72063;BME280;59929;43.546;-5.702;2022-09-06T18:49:03;101635.72;;;25.27;50.26
72063;BME280;59929;43.546;-5.702;2022-09-06T18:51:30;101628.03;;;25.24;50.39
72063;BME280;59929;43.546;-5.702;2022-09-06T18:53:57;101622.81;;;25.31;49.82
72063;BME280;59929;43.546;-5.702;2022-09-06T18:56:25;101632.09;;;25.18;50.96
72063;BME280;59929;43.546;-5.702;2022-09-06T18:58:55;101642.44;;;25.26;50.50
72063;BME280;59929;43.546;-5.702;2022-09-06T19:01:23;101640.66;;;25.30;50.31
72063;BME280;59929;43.546;-5.702;2022-09-06T19:03:49;101637.59;;;25.40;50.13
72063;BME280;59929;43.546;-5.702;2022-09-06T19:06:17;101646.69;;;25.23;50.33
72063;BME280;59929;43.546;-5.702;2022-09-06T19:08:43;101646.84;;;25.27;50.36
72063;BME280;59929;43.546;-5.702;2022-09-06T19:11:11;101645.84;;;25.23;50.60
72063;BME280;59929;43.546;-5.702;2022-09-06T19:13:38;101652.34;;;25.10;51.43
72063;BME280;59929;43.546;-5.702;2022-09-06T19:16:05;101645.63;;;25.11;51.83
72063;BME280;59929;43.546;-5.702;2022-09-06T19:18:32;101656.75;;;25.11;51.40
72063;BME280;59929;43.546;-5.702;2022-09-06T19:21:02;101664.09;;;25.07;51.42
72063;BME280;59929;43.546;-5.702;2022-09-06T19:23:31;101670.00;;;25.05;51.55
72063;BME280;59929;43.546;-5.702;2022-09-06T19:26:00;101665.75;;;25.08;51.96
72063;BME280;59929;43.546;-5.702;2022-09-06T19:28:26;101659.31;;;24.98;52.25
72063;BME280;59929;43.546;-5.702;2022-09-06T19:30:53;101672.47;;;24.84;52.72
72063;BME280;59929;43.546;-5.702;2022-09-06T19:33:19;101671.78;;;24.79;53.32
72063;BME280;59929;43.546;-5.702;2022-09-06T19:35:45;101677.13;;;24.75;53.14
72063;BME280;59929;43.546;-5.702;2022-09-06T19:38:11;101681.50;;;24.54;53.75
72063;BME280;59929;43.546;-5.702;2022-09-06T19:40:36;101680.88;;;24.57;53.62
72063;BME280;59929;43.546;-5.702;2022-09-06T19:43:02;101682.91;;;24.65;53.05
72063;BME280;59929;43.546;-5.702;2022-09-06T19:45:28;101686.31;;;24.76;53.13
72063;BME280;59929;43.546;-5.702;2022-09-06T19:47:54;101687.13;;;24.76;53.01
72063;BME280;59929;43.546;-5.702;2022-09-06T19:50:20;101685.03;;;24.82;52.40
72063;BME280;59929;43.546;-5.702;2022-09-06T19:52:46;101700.59;;;24.83;52.47
72063;BME280;59929;43.546;-5.702;2022-09-06T19:55:12;101706.34;;;24.86;52.81
72063;BME280;59929;43.546;-5.702;2022-09-06T19:57:37;101697.81;;;24.69;52.50
72063;BME280;59929;43.546;-5.702;2022-09-06T20:00:04;101697.75;;;24.74;52.71
72063;BME280;59929;43.546;-5.702;2022-09-06T20:02:30;101700.22;;;24.62;52.88
72063;BME280;59929;43.546;-5.702;2022-09-06T20:04:56;101695.94;;;24.56;53.73
72063;BME280;59929;43.546;-5.702;2022-09-06T20:07:21;101706.03;;;24.39;53.60
72063;BME280;59929;43.546;-5.702;2022-09-06T20:09:47;101711.66;;;24.25;53.89
72063;BME280;59929;43.546;-5.702;2022-09-06T20:12:13;101705.84;;;24.21;54.86
72063;BME280;59929;43.546;-5.702;2022-09-06T20:14:38;101709.56;;;24.31;54.38
72063;BME280;59929;43.546;-5.702;2022-09-06T20:17:04;101705.44;;;24.42;54.50
72063;BME280;59929;43.546;-5.702;2022-09-06T20:19:31;101708.09;;;24.47;54.73
72063;BME280;59929;43.546;-5.702;2022-09-06T20:21:56;101710.50;;;24.26;55.24
72063;BME280;59929;43.546;-5.702;2022-09-06T20:24:24;101716.41;;;24.11;56.13
72063;BME280;59929;43.546;-5.702;2022-09-06T20:26:50;101724.81;;;23.92;55.94
72063;BME280;59929;43.546;-5.702;2022-09-06T20:29:17;101731.69;;;23.81;56.37
72063;BME280;59929;43.546;-5.702;2022-09-06T20:31:43;101724.19;;;23.82;56.44
72063;BME280;59929;43.546;-5.702;2022-09-06T20:34:08;101727.88;;;23.91;55.74
72063;BME280;59929;43.546;-5.702;2022-09-06T20:36:35;101718.50;;;23.87;55.79
72063;BME280;59929;43.546;-5.702;2022-09-06T20:39:00;101726.44;;;23.93;55.22
72063;BME280;59929;43.546;-5.702;2022-09-06T20:41:26;101718.41;;;23.92;55.43
72063;BME280;59929;43.546;-5.702;2022-09-06T20:43:54;101733.63;;;23.81;55.38
72063;BME280;59929;43.546;-5.702;2022-09-06T20:46:23;101723.75;;;23.75;55.83
72063;BME280;59929;43.546;-5.702;2022-09-06T20:48:49;101728.69;;;23.78;55.82
72063;BME280;59929;43.546;-5.702;2022-09-06T20:51:18;101731.16;;;23.66;56.14
72063;BME280;59929;43.546;-5.702;2022-09-06T20:53:45;101724.56;;;23.62;56.49
72063;BME280;59929;43.546;-5.702;2022-09-06T20:56:14;101724.38;;;23.72;56.07
72063;BME280;59929;43.546;-5.702;2022-09-06T20:58:41;101719.22;;;23.65;56.20
72063;BME280;59929;43.546;-5.702;2022-09-06T21:01:12;101709.22;;;23.64;56.70
72063;BME280;59929;43.546;-5.702;2022-09-06T21:03:41;101699.03;;;23.60;56.53
72063;BME280;59929;43.546;-5.702;2022-09-06T21:06:08;101694.50;;;23.50;56.84
72063;BME280;59929;43.546;-5.702;2022-09-06T21:08:35;101698.19;;;23.45;57.21
72063;BME280;59929;43.546;-5.702;2022-09-06T21:11:02;101707.03;;;23.48;57.27
72063;BME280;59929;43.546;-5.702;2022-09-06T21:13:29;101709.94;;;23.42;57.24
72063;BME280;59929;43.546;-5.702;2022-09-06T21:15:55;101714.44;;;23.38;57.28
72063;BME280;59929;43.546;-5.702;2022-09-06T21:18:23;101716.06;;;23.39;57.19
72063;BME280;59929;43.546;-5.702;2022-09-06T21:20:53;101708.72;;;23.30;57.59
72063;BME280;59929;43.546;-5.702;2022-09-06T21:23:20;101713.56;;;23.24;57.78
72063;BME280;59929;43.546;-5.702;2022-09-06T21:25:57;101716.94;;;23.21;57.89
72063;BME280;59929;43.546;-5.702;2022-09-06T21:28:25;101713.41;;;23.16;57.86
72063;BME280;59929;43.546;-5.702;2022-09-06T21:31:15;101713.28;;;23.07;58.17
72063;BME280;59929;43.546;-5.702;2022-09-06T21:33:44;101713.28;;;23.07;58.39
72063;BME280;59929;43.546;-5.702;2022-09-06T21:36:14;101710.31;;;23.04;58.86
72063;BME280;59929;43.546;-5.702;2022-09-06T21:38:42;101706.31;;;23.10;58.32
72063;BME280;59929;43.546;-5.702;2022-09-06T21:41:10;101699.31;;;23.12;58.03
72063;BME280;59929;43.546;-5.702;2022-09-06T21:43:36;101708.63;;;23.03;57.60
72063;BME280;59929;43.546;-5.702;2022-09-06T21:46:06;101705.50;;;22.91;58.29
72063;BME280;59929;43.546;-5.702;2022-09-06T21:48:41;101702.28;;;22.65;59.26
72063;BME280;59929;43.546;-5.702;2022-09-06T21:51:09;101706.47;;;22.44;60.27
72063;BME280;59929;43.546;-5.702;2022-09-06T21:53:36;101700.00;;;22.48;60.55
72063;BME280;59929;43.546;-5.702;2022-09-06T21:56:03;101704.91;;;22.56;60.31
72063;BME280;59929;43.546;-5.702;2022-09-06T21:58:29;101698.38;;;22.47;60.31
72063;BME280;59929;43.546;-5.702;2022-09-06T22:00:56;101695.13;;;22.22;61.24
72063;BME280;59929;43.546;-5.702;2022-09-06T22:03:24;101694.84;;;22.23;61.48
72063;BME280;59929;43.546;-5.702;2022-09-06T22:05:50;101688.31;;;22.14;61.87
72063;BME280;59929;43.546;-5.702;2022-09-06T22:08:16;101695.75;;;21.95;62.51
72063;BME280;59929;43.546;-5.702;2022-09-06T22:10:41;101689.41;;;21.95;62.67
72063;BME280;59929;43.546;-5.702;2022-09-06T22:15:36;101693.50;;;21.97;62.82
72063;BME280;59929;43.546;-5.702;2022-09-06T22:18:02;101699.22;;;22.06;62.60
72063;BME280;59929;43.546;-5.702;2022-09-06T22:22:54;101689.28;;;22.05;62.76
72063;BME280;59929;43.546;-5.702;2022-09-06T22:25:19;101687.84;;;22.07;62.48
72063;BME280;59929;43.546;-5.702;2022-09-06T22:27:45;101688.31;;;22.14;62.28
72063;BME280;59929;43.546;-5.702;2022-09-06T22:30:11;101688.66;;;22.08;62.58
72063;BME280;59929;43.546;-5.702;2022-09-06T22:32:37;101694.16;;;22.13;62.58